sensor_id;sensor_type;location;lat;lon;timestamp;P1;durP1;ratioP1;P2;durP2;ratioP2
13764;SDS011;6953;48.810;9.204;2024-02-15T00:02:24;0.40;;;0.40;;
13764;SDS011;6953;48.810;9.204;2024-02-15T00:04:50;0.38;;;0.38;;
13764;SDS011;6953;48.810;9.204;2024-02-15T00:07:15;0.30;;;0.30;;
13764;SDS011;6953;48.810;9.204;2024-02-15T00:09:40;0.30;;;0.30;;
13764;SDS011;6953;48.810;9.204;2024-02-15T00:12:06;0.40;;;0.40;;
13764;SDS011;6953;48.810;9.204;2024-02-15T00:14:31;0.40;;;0.40;;
13764;SDS011;6953;48.810;9.204;2024-02-15T00:16:56;0.40;;;0.40;;
13764;SDS011;6953;48.810;9.204;2024-02-15T00:19:22;0.45;;;0.45;;
13764;SDS011;6953;48.810;9.204;2024-02-15T00:21:48;0.40;;;0.40;;
13764;SDS011;6953;48.810;9.204;2024-02-15T00:24:13;0.30;;;0.30;;
13764;SDS011;6953;48.810;9.204;2024-02-15T00:26:39;0.40;;;0.40;;
13764;SDS011;6953;48.810;9.204;2024-02-15T00:29:07;0.50;;;0.50;;
13764;SDS011;6953;48.810;9.204;2024-02-15T00:31:33;0.35;;;0.35;;
13764;SDS011;6953;48.810;9.204;2024-02-15T00:34:00;0.47;;;0.47;;
13764;SDS011;6953;48.810;9.204;2024-02-15T00:36:27;0.40;;;0.40;;
13764;SDS011;6953;48.810;9.204;2024-02-15T00:38:52;0.30;;;0.30;;
13764;SDS011;6953;48.810;9.204;2024-02-15T00:41:18;0.50;;;0.50;;
13764;SDS011;6953;48.810;9.204;2024-02-15T00:43:45;0.45;;;0.45;;
13764;SDS011;6953;48.810;9.204;2024-02-15T00:46:10;0.40;;;0.40;;
13764;SDS011;6953;48.810;9.204;2024-02-15T00:48:35;0.50;;;0.50;;
13764;SDS011;6953;48.810;9.204;2024-02-15T00:51:00;0.40;;;0.40;;
13764;SDS011;6953;48.810;9.204;2024-02-15T00:53:26;0.47;;;0.47;;
13764;SDS011;6953;48.810;9.204;2024-02-15T00:55:51;0.52;;;0.52;;
13764;SDS011;6953;48.810;9.204;2024-02-15T00:58:16;0.40;;;0.40;;
13764;SDS011;6953;48.810;9.204;2024-02-15T01:00:42;0.50;;;0.50;;
13764;SDS011;6953;48.810;9.204;2024-02-15T01:03:07;0.30;;;0.30;;
13764;SDS011;6953;48.810;9.204;2024-02-15T01:05:33;0.40;;;0.40;;
13764;SDS011;6953;48.810;9.204;2024-02-15T01:07:59;0.45;;;0.45;;
13764;SDS011;6953;48.810;9.204;2024-02-15T01:10:24;0.30;;;0.30;;
13764;SDS011;6953;48.810;9.204;2024-02-15T01:12:51;0.20;;;0.20;;
13764;SDS011;6953;48.810;9.204;2024-02-15T01:15:17;0.40;;;0.40;;
13764;SDS011;6953;48.810;9.204;2024-02-15T01:17:44;0.40;;;0.40;;
13764;SDS011;6953;48.810;9.204;2024-02-15T01:20:09;0.40;;;0.40;;
13764;SDS011;6953;48.810;9.204;2024-02-15T01:22:35;0.30;;;0.30;;
13764;SDS011;6953;48.810;9.204;2024-02-15T01:25:01;0.38;;;0.38;;
13764;SDS011;6953;48.810;9.204;2024-02-15T01:27:26;0.20;;;0.20;;
13764;SDS011;6953;48.810;9.204;2024-02-15T01:29:55;0.40;;;0.40;;
13764;SDS011;6953;48.810;9.204;2024-02-15T01:32:23;0.40;;;0.40;;
13764;SDS011;6953;48.810;9.204;2024-02-15T01:34:50;0.40;;;0.40;;
13764;SDS011;6953;48.810;9.204;2024-02-15T01:37:19;0.30;;;0.30;;
13764;SDS011;6953;48.810;9.204;2024-02-15T01:39:45;0.38;;;0.38;;
13764;SDS011;6953;48.810;9.204;2024-02-15T01:42:10;0.43;;;0.43;;
13764;SDS011;6953;48.810;9.204;2024-02-15T01:44:36;0.30;;;0.30;;
13764;SDS011;6953;48.810;9.204;2024-02-15T01:47:02;0.50;;;0.50;;
13764;SDS011;6953;48.810;9.204;2024-02-15T01:49:28;0.30;;;0.30;;
13764;SDS011;6953;48.810;9.204;2024-02-15T01:51:53;0.30;;;0.30;;
13764;SDS011;6953;48.810;9.204;2024-02-15T01:54:21;0.30;;;0.30;;
13764;SDS011;6953;48.810;9.204;2024-02-15T01:56:47;0.30;;;0.30;;
13764;SDS011;6953;48.810;9.204;2024-02-15T01:59:14;0.30;;;0.30;;
13764;SDS011;6953;48.810;9.204;2024-02-15T02:01:40;0.40;;;0.40;;
13764;SDS011;6953;48.810;9.204;2024-02-15T02:04:06;0.30;;;0.30;;
13764;SDS011;6953;48.810;9.204;2024-02-15T02:06:33;0.40;;;0.40;;
13764;SDS011;6953;48.810;9.204;2024-02-15T02:08:58;0.50;;;0.50;;
13764;SDS011;6953;48.810;9.204;2024-02-15T02:11:23;0.43;;;0.43;;
13764;SDS011;6953;48.810;9.204;2024-02-15T02:13:49;0.40;;;0.40;;
13764;SDS011;6953;48.810;9.204;2024-02-15T02:16:28;0.40;;;0.40;;
13764;SDS011;6953;48.810;9.204;2024-02-15T02:18:56;0.40;;;0.40;;
13764;SDS011;6953;48.810;9.204;2024-02-15T02:21:23;0.45;;;0.45;;
13764;SDS011;6953;48.810;9.204;2024-02-15T02:23:52;0.50;;;0.50;;
13764;SDS011;6953;48.810;9.204;2024-02-15T02:26:21;0.50;;;0.50;;
13764;SDS011;6953;48.810;9.204;2024-02-15T02:28:48;0.40;;;0.40;;
13764;SDS011;6953;48.810;9.204;2024-02-15T02:31:13;0.43;;;0.43;;
13764;SDS011;6953;48.810;9.204;2024-02-15T02:33:39;0.30;;;0.30;;
13764;SDS011;6953;48.810;9.204;2024-02-15T02:36:05;0.50;;;0.50;;
13764;SDS011;6953;48.810;9.204;2024-02-15T02:38:37;0.40;;;0.40;;
13764;SDS011;6953;48.810;9.204;2024-02-15T02:41:05;0.50;;;0.50;;
13764;SDS011;6953;48.810;9.204;2024-02-15T02:43:31;0.50;;;0.50;;
13764;SDS011;6953;48.810;9.204;2024-02-15T02:45:56;0.50;;;0.50;;
13764;SDS011;6953;48.810;9.204;2024-02-15T02:48:21;0.40;;;0.40;;
13764;SDS011;6953;48.810;9.204;2024-02-15T02:50:49;0.40;;;0.40;;
13764;SDS011;6953;48.810;9.204;2024-02-15T02:53:15;0.40;;;0.40;;
13764;SDS011;6953;48.810;9.204;2024-02-15T02:55:40;0.35;;;0.35;;
13764;SDS011;6953;48.810;9.204;2024-02-15T02:58:06;0.43;;;0.43;;
13764;SDS011;6953;48.810;9.204;2024-02-15T03:00:32;0.40;;;0.40;;
13764;SDS011;6953;48.810;9.204;2024-02-15T03:02:58;0.40;;;0.40;;
13764;SDS011;6953;48.810;9.204;2024-02-15T03:05:24;0.35;;;0.35;;
13764;SDS011;6953;48.810;9.204;2024-02-15T03:07:50;0.40;;;0.40;;
13764;SDS011;6953;48.810;9.204;2024-02-15T03:10:16;0.47;;;0.47;;
13764;SDS011;6953;48.810;9.204;2024-02-15T03:12:43;0.43;;;0.43;;
13764;SDS011;6953;48.810;9.204;2024-02-15T03:15:12;0.50;;;0.50;;
13764;SDS011;6953;48.810;9.204;2024-02-15T03:17:41;0.50;;;0.50;;
13764;SDS011;6953;48.810;9.204;2024-02-15T03:20:07;0.32;;;0.32;;
13764;SDS011;6953;48.810;9.204;2024-02-15T03:22:45;0.40;;;0.40;;
13764;SDS011;6953;48.810;9.204;2024-02-15T03:25:10;0.50;;;0.50;;
13764;SDS011;6953;48.810;9.204;2024-02-15T03:27:35;0.50;;;0.50;;
13764;SDS011;6953;48.810;9.204;2024-02-15T03:30:02;0.50;;;0.50;;
13764;SDS011;6953;48.810;9.204;2024-02-15T03:32:29;0.40;;;0.40;;
13764;SDS011;6953;48.810;9.204;2024-02-15T03:34:55;0.40;;;0.40;;
13764;SDS011;6953;48.810;9.204;2024-02-15T03:37:20;0.50;;;0.50;;
13764;SDS011;6953;48.810;9.204;2024-02-15T03:39:46;0.30;;;0.30;;
13764;SDS011;6953;48.810;9.204;2024-02-15T03:42:11;0.45;;;0.45;;
13764;SDS011;6953;48.810;9.204;2024-02-15T03:44:37;0.40;;;0.40;;
13764;SDS011;6953;48.810;9.204;2024-02-15T03:47:03;0.40;;;0.40;;
13764;SDS011;6953;48.810;9.204;2024-02-15T03:49:30;0.52;;;0.52;;
13764;SDS011;6953;48.810;9.204;2024-02-15T03:51:56;0.40;;;0.40;;
13764;SDS011;6953;48.810;9.204;2024-02-15T03:54:24;0.40;;;0.40;;
13764;SDS011;6953;48.810;9.204;2024-02-15T03:56:50;0.50;;;0.50;;
13764;SDS011;6953;48.810;9.204;2024-02-15T03:59:19;0.50;;;0.50;;
13764;SDS011;6953;48.810;9.204;2024-02-15T04:01:51;0.40;;;0.40;;
13764;SDS011;6953;48.810;9.204;2024-02-15T04:04:16;0.40;;;0.40;;
13764;SDS011;6953;48.810;9.204;2024-02-15T04:06:42;0.50;;;0.50;;
13764;SDS011;6953;48.810;9.204;2024-02-15T04:09:07;0.40;;;0.40;;
13764;SDS011;6953;48.810;9.204;2024-02-15T04:11:33;0.40;;;0.40;;
13764;SDS011;6953;48.810;9.204;2024-02-15T04:13:59;0.40;;;0.40;;
13764;SDS011;6953;48.810;9.204;2024-02-15T04:16:24;0.38;;;0.38;;
13764;SDS011;6953;48.810;9.204;2024-02-15T04:18:50;0.50;;;0.50;;
13764;SDS011;6953;48.810;9.204;2024-02-15T04:21:16;0.40;;;0.40;;
13764;SDS011;6953;48.810;9.204;2024-02-15T04:23:44;0.40;;;0.40;;
13764;SDS011;6953;48.810;9.204;2024-02-15T04:26:10;0.40;;;0.40;;
13764;SDS011;6953;48.810;9.204;2024-02-15T04:28:38;0.40;;;0.40;;
13764;SDS011;6953;48.810;9.204;2024-02-15T04:31:04;0.30;;;0.30;;
13764;SDS011;6953;48.810;9.204;2024-02-15T04:33:30;0.38;;;0.38;;
13764;SDS011;6953;48.810;9.204;2024-02-15T04:35:55;0.50;;;0.50;;
13764;SDS011;6953;48.810;9.204;2024-02-15T04:38:21;0.40;;;0.40;;
13764;SDS011;6953;48.810;9.204;2024-02-15T04:40:46;0.40;;;0.40;;
13764;SDS011;6953;48.810;9.204;2024-02-15T04:43:12;0.40;;;0.40;;
13764;SDS011;6953;48.810;9.204;2024-02-15T04:45:40;0.50;;;0.50;;
13764;SDS011;6953;48.810;9.204;2024-02-15T04:48:06;0.50;;;0.50;;
13764;SDS011;6953;48.810;9.204;2024-02-15T04:50:32;0.40;;;0.40;;
13764;SDS011;6953;48.810;9.204;2024-02-15T04:52:57;0.45;;;0.45;;
13764;SDS011;6953;48.810;9.204;2024-02-15T04:55:22;0.40;;;0.40;;
13764;SDS011;6953;48.810;9.204;2024-02-15T04:57:48;0.50;;;0.50;;
13764;SDS011;6953;48.810;9.204;2024-02-15T05:00:15;0.40;;;0.40;;
13764;SDS011;6953;48.810;9.204;2024-02-15T05:02:41;0.40;;;0.40;;
13764;SDS011;6953;48.810;9.204;2024-02-15T05:05:08;0.40;;;0.40;;
13764;SDS011;6953;48.810;9.204;2024-02-15T05:07:34;0.40;;;0.40;;
13764;SDS011;6953;48.810;9.204;2024-02-15T05:10:02;0.50;;;0.50;;
13764;SDS011;6953;48.810;9.204;2024-02-15T05:12:31;0.40;;;0.40;;
13764;SDS011;6953;48.810;9.204;2024-02-15T05:14:58;0.32;;;0.32;;
13764;SDS011;6953;48.810;9.204;2024-02-15T05:17:23;0.40;;;0.40;;
13764;SDS011;6953;48.810;9.204;2024-02-15T05:19:49;0.40;;;0.40;;
13764;SDS011;6953;48.810;9.204;2024-02-15T05:22:14;0.40;;;0.40;;
13764;SDS011;6953;48.810;9.204;2024-02-15T05:24:40;0.50;;;0.50;;
13764;SDS011;6953;48.810;9.204;2024-02-15T05:27:05;0.50;;;0.50;;
13764;SDS011;6953;48.810;9.204;2024-02-15T05:29:31;0.32;;;0.32;;
13764;SDS011;6953;48.810;9.204;2024-02-15T05:32:00;0.50;;;0.50;;
13764;SDS011;6953;48.810;9.204;2024-02-15T05:34:26;0.40;;;0.40;;
13764;SDS011;6953;48.810;9.204;2024-02-15T05:36:51;0.40;;;0.40;;
13764;SDS011;6953;48.810;9.204;2024-02-15T05:39:17;0.35;;;0.35;;
13764;SDS011;6953;48.810;9.204;2024-02-15T05:41:45;0.30;;;0.30;;
13764;SDS011;6953;48.810;9.204;2024-02-15T05:44:11;0.40;;;0.40;;
13764;SDS011;6953;48.810;9.204;2024-02-15T05:46:36;0.60;;;0.60;;
13764;SDS011;6953;48.810;9.204;2024-02-15T05:49:05;0.40;;;0.40;;
13764;SDS011;6953;48.810;9.204;2024-02-15T05:51:30;0.40;;;0.40;;
13764;SDS011;6953;48.810;9.204;2024-02-15T05:53:58;0.50;;;0.50;;
13764;SDS011;6953;48.810;9.204;2024-02-15T05:56:24;0.40;;;0.40;;
13764;SDS011;6953;48.810;9.204;2024-02-15T05:58:50;0.40;;;0.40;;
13764;SDS011;6953;48.810;9.204;2024-02-15T06:01:16;0.40;;;0.40;;
13764;SDS011;6953;48.810;9.204;2024-02-15T06:03:41;0.40;;;0.40;;
13764;SDS011;6953;48.810;9.204;2024-02-15T06:06:09;0.40;;;0.40;;
13764;SDS011;6953;48.810;9.204;2024-02-15T06:08:36;0.47;;;0.47;;
13764;SDS011;6953;48.810;9.204;2024-02-15T06:11:02;0.50;;;0.50;;
13764;SDS011;6953;48.810;9.204;2024-02-15T06:13:29;0.40;;;0.40;;
13764;SDS011;6953;48.810;9.204;2024-02-15T06:15:54;0.40;;;0.40;;
13764;SDS011;6953;48.810;9.204;2024-02-15T06:18:20;0.40;;;0.40;;
13764;SDS011;6953;48.810;9.204;2024-02-15T06:20:56;0.40;;;0.40;;
13764;SDS011;6953;48.810;9.204;2024-02-15T06:23:22;0.40;;;0.40;;
13764;SDS011;6953;48.810;9.204;2024-02-15T06:25:50;0.40;;;0.40;;
13764;SDS011;6953;48.810;9.204;2024-02-15T06:28:17;0.50;;;0.50;;
13764;SDS011;6953;48.810;9.204;2024-02-15T06:31:01;0.22;;;0.22;;
13764;SDS011;6953;48.810;9.204;2024-02-15T06:33:45;0.40;;;0.40;;
13764;SDS011;6953;48.810;9.204;2024-02-15T06:36:29;0.30;;;0.30;;
13764;SDS011;6953;48.810;9.204;2024-02-15T06:39:13;0.40;;;0.40;;
13764;SDS011;6953;48.810;9.204;2024-02-15T06:41:57;0.40;;;0.40;;
13764;SDS011;6953;48.810;9.204;2024-02-15T06:44:23;0.40;;;0.40;;
13764;SDS011;6953;48.810;9.204;2024-02-15T06:46:49;0.40;;;0.40;;
13764;SDS011;6953;48.810;9.204;2024-02-15T06:49:15;0.50;;;0.50;;
13764;SDS011;6953;48.810;9.204;2024-02-15T06:51:41;0.40;;;0.40;;
13764;SDS011;6953;48.810;9.204;2024-02-15T06:54:07;0.40;;;0.40;;
13764;SDS011;6953;48.810;9.204;2024-02-15T06:56:35;0.40;;;0.40;;
13764;SDS011;6953;48.810;9.204;2024-02-15T06:59:02;0.40;;;0.40;;
13764;SDS011;6953;48.810;9.204;2024-02-15T07:01:28;0.50;;;0.50;;
13764;SDS011;6953;48.810;9.204;2024-02-15T07:03:55;0.50;;;0.50;;
13764;SDS011;6953;48.810;9.204;2024-02-15T07:06:21;0.40;;;0.40;;
13764;SDS011;6953;48.810;9.204;2024-02-15T07:08:46;0.40;;;0.40;;
13764;SDS011;6953;48.810;9.204;2024-02-15T07:11:13;0.40;;;0.40;;
13764;SDS011;6953;48.810;9.204;2024-02-15T07:13:38;0.40;;;0.40;;
13764;SDS011;6953;48.810;9.204;2024-02-15T07:16:07;0.38;;;0.38;;
13764;SDS011;6953;48.810;9.204;2024-02-15T07:18:33;0.43;;;0.43;;
13764;SDS011;6953;48.810;9.204;2024-02-15T07:20:58;0.40;;;0.40;;
13764;SDS011;6953;48.810;9.204;2024-02-15T07:23:26;0.40;;;0.40;;
13764;SDS011;6953;48.810;9.204;2024-02-15T07:25:51;0.40;;;0.40;;
13764;SDS011;6953;48.810;9.204;2024-02-15T07:28:18;0.40;;;0.40;;
13764;SDS011;6953;48.810;9.204;2024-02-15T07:30:44;0.40;;;0.40;;
13764;SDS011;6953;48.810;9.204;2024-02-15T07:33:11;0.40;;;0.40;;
13764;SDS011;6953;48.810;9.204;2024-02-15T07:35:36;0.30;;;0.30;;
13764;SDS011;6953;48.810;9.204;2024-02-15T07:38:02;0.40;;;0.40;;
13764;SDS011;6953;48.810;9.204;2024-02-15T07:40:30;0.30;;;0.30;;
13764;SDS011;6953;48.810;9.204;2024-02-15T07:42:58;0.50;;;0.50;;
13764;SDS011;6953;48.810;9.204;2024-02-15T07:45:23;0.45;;;0.45;;
13764;SDS011;6953;48.810;9.204;2024-02-15T07:47:49;0.30;;;0.30;;
13764;SDS011;6953;48.810;9.204;2024-02-15T07:50:15;0.35;;;0.35;;
13764;SDS011;6953;48.810;9.204;2024-02-15T07:52:45;0.45;;;0.45;;
13764;SDS011;6953;48.810;9.204;2024-02-15T07:55:10;0.45;;;0.45;;
13764;SDS011;6953;48.810;9.204;2024-02-15T07:57:37;0.50;;;0.50;;
13764;SDS011;6953;48.810;9.204;2024-02-15T08:00:02;0.30;;;0.30;;
13764;SDS011;6953;48.810;9.204;2024-02-15T08:02:35;0.40;;;0.40;;
13764;SDS011;6953;48.810;9.204;2024-02-15T08:05:00;0.30;;;0.30;;
13764;SDS011;6953;48.810;9.204;2024-02-15T08:07:29;0.30;;;0.30;;
13764;SDS011;6953;48.810;9.204;2024-02-15T08:09:58;0.47;;;0.47;;
13764;SDS011;6953;48.810;9.204;2024-02-15T08:12:24;0.30;;;0.30;;
13764;SDS011;6953;48.810;9.204;2024-02-15T08:14:51;0.40;;;0.40;;
13764;SDS011;6953;48.810;9.204;2024-02-15T08:17:16;0.20;;;0.20;;
13764;SDS011;6953;48.810;9.204;2024-02-15T08:19:42;0.40;;;0.40;;
13764;SDS011;6953;48.810;9.204;2024-02-15T08:22:07;0.30;;;0.30;;
13764;SDS011;6953;48.810;9.204;2024-02-15T08:24:33;0.32;;;0.32;;
13764;SDS011;6953;48.810;9.204;2024-02-15T08:26:58;0.32;;;0.32;;
13764;SDS011;6953;48.810;9.204;2024-02-15T08:29:24;0.20;;;0.20;;
13764;SDS011;6953;48.810;9.204;2024-02-15T08:31:50;0.40;;;0.40;;
13764;SDS011;6953;48.810;9.204;2024-02-15T08:34:15;0.30;;;0.30;;
13764;SDS011;6953;48.810;9.204;2024-02-15T08:36:43;0.30;;;0.30;;
13764;SDS011;6953;48.810;9.204;2024-02-15T08:39:09;0.32;;;0.32;;
13764;SDS011;6953;48.810;9.204;2024-02-15T08:41:37;0.32;;;0.32;;
13764;SDS011;6953;48.810;9.204;2024-02-15T08:44:03;0.30;;;0.30;;
13764;SDS011;6953;48.810;9.204;2024-02-15T08:46:33;0.28;;;0.28;;
13764;SDS011;6953;48.810;9.204;2024-02-15T08:49:00;0.35;;;0.35;;
13764;SDS011;6953;48.810;9.204;2024-02-15T08:51:25;0.40;;;0.40;;
13764;SDS011;6953;48.810;9.204;2024-02-15T08:53:51;0.40;;;0.40;;
13764;SDS011;6953;48.810;9.204;2024-02-15T08:56:16;0.20;;;0.20;;
13764;SDS011;6953;48.810;9.204;2024-02-15T08:58:41;0.28;;;0.28;;
13764;SDS011;6953;48.810;9.204;2024-02-15T09:01:07;0.20;;;0.20;;
13764;SDS011;6953;48.810;9.204;2024-02-15T09:03:33;0.30;;;0.30;;
13764;SDS011;6953;48.810;9.204;2024-02-15T09:06:01;0.20;;;0.20;;
13764;SDS011;6953;48.810;9.204;2024-02-15T09:08:28;0.30;;;0.30;;
13764;SDS011;6953;48.810;9.204;2024-02-15T09:10:55;0.30;;;0.30;;
13764;SDS011;6953;48.810;9.204;2024-02-15T09:13:22;0.20;;;0.20;;
13764;SDS011;6953;48.810;9.204;2024-02-15T09:15:47;0.20;;;0.20;;
13764;SDS011;6953;48.810;9.204;2024-02-15T09:18:13;0.20;;;0.20;;
13764;SDS011;6953;48.810;9.204;2024-02-15T09:20:38;0.20;;;0.20;;
13764;SDS011;6953;48.810;9.204;2024-02-15T09:23:09;0.20;;;0.20;;
13764;SDS011;6953;48.810;9.204;2024-02-15T09:25:40;0.20;;;0.20;;
13764;SDS011;6953;48.810;9.204;2024-02-15T09:28:07;0.10;;;0.10;;
13764;SDS011;6953;48.810;9.204;2024-02-15T09:30:33;0.10;;;0.10;;
13764;SDS011;6953;48.810;9.204;2024-02-15T09:33:00;0.10;;;0.10;;
13764;SDS011;6953;48.810;9.204;2024-02-15T09:35:29;0.05;;;0.05;;
13764;SDS011;6953;48.810;9.204;2024-02-15T09:37:55;0.10;;;0.10;;
13764;SDS011;6953;48.810;9.204;2024-02-15T09:40:21;0.10;;;0.10;;
13764;SDS011;6953;48.810;9.204;2024-02-15T09:42:51;0.10;;;0.10;;
13764;SDS011;6953;48.810;9.204;2024-02-15T09:45:17;0.10;;;0.10;;
13764;SDS011;6953;48.810;9.204;2024-02-15T09:47:43;0.10;;;0.10;;
13764;SDS011;6953;48.810;9.204;2024-02-15T09:50:10;0.08;;;0.08;;
13764;SDS011;6953;48.810;9.204;2024-02-15T09:52:50;0.08;;;0.08;;
13764;SDS011;6953;48.810;9.204;2024-02-15T09:55:17;0.10;;;0.10;;
13764;SDS011;6953;48.810;9.204;2024-02-15T09:57:43;0.00;;;0.00;;
13764;SDS011;6953;48.810;9.204;2024-02-15T10:00:11;0.00;;;0.00;;
13764;SDS011;6953;48.810;9.204;2024-02-15T10:02:41;0.00;;;0.00;;
13764;SDS011;6953;48.810;9.204;2024-02-15T10:05:11;0.00;;;0.00;;
13764;SDS011;6953;48.810;9.204;2024-02-15T10:07:40;0.00;;;0.00;;
13764;SDS011;6953;48.810;9.204;2024-02-15T10:10:17;0.00;;;0.00;;
13764;SDS011;6953;48.810;9.204;2024-02-15T10:12:44;0.10;;;0.10;;
13764;SDS011;6953;48.810;9.204;2024-02-15T10:15:09;0.00;;;0.00;;
13764;SDS011;6953;48.810;9.204;2024-02-15T10:17:35;0.00;;;0.00;;
13764;SDS011;6953;48.810;9.204;2024-02-15T10:20:04;0.00;;;0.00;;
13764;SDS011;6953;48.810;9.204;2024-02-15T10:22:31;0.00;;;0.00;;
13764;SDS011;6953;48.810;9.204;2024-02-15T10:25:12;0.00;;;0.00;;
13764;SDS011;6953;48.810;9.204;2024-02-15T10:27:39;0.00;;;0.00;;
13764;SDS011;6953;48.810;9.204;2024-02-15T10:30:16;0.00;;;0.00;;
13764;SDS011;6953;48.810;9.204;2024-02-15T10:32:45;0.00;;;0.00;;
13764;SDS011;6953;48.810;9.204;2024-02-15T10:35:18;0.00;;;0.00;;
13764;SDS011;6953;48.810;9.204;2024-02-15T10:37:47;0.00;;;0.00;;
13764;SDS011;6953;48.810;9.204;2024-02-15T10:40:16;0.00;;;0.00;;
13764;SDS011;6953;48.810;9.204;2024-02-15T10:42:43;0.00;;;0.00;;
13764;SDS011;6953;48.810;9.204;2024-02-15T10:45:12;0.00;;;0.00;;
13764;SDS011;6953;48.810;9.204;2024-02-15T10:47:39;0.00;;;0.00;;
13764;SDS011;6953;48.810;9.204;2024-02-15T10:50:06;0.00;;;0.00;;
13764;SDS011;6953;48.810;9.204;2024-02-15T10:52:32;0.00;;;0.00;;
13764;SDS011;6953;48.810;9.204;2024-02-15T10:55:03;0.00;;;0.00;;
13764;SDS011;6953;48.810;9.204;2024-02-15T10:57:33;0.00;;;0.00;;
13764;SDS011;6953;48.810;9.204;2024-02-15T11:00:02;0.00;;;0.00;;
13764;SDS011;6953;48.810;9.204;2024-02-15T11:02:38;0.00;;;0.00;;
13764;SDS011;6953;48.810;9.204;2024-02-15T11:05:10;0.00;;;0.00;;
13764;SDS011;6953;48.810;9.204;2024-02-15T11:07:39;0.00;;;0.00;;
13764;SDS011;6953;48.810;9.204;2024-02-15T11:10:06;0.00;;;0.00;;
13764;SDS011;6953;48.810;9.204;2024-02-15T11:12:33;0.00;;;0.00;;
13764;SDS011;6953;48.810;9.204;2024-02-15T11:15:00;0.00;;;0.00;;
13764;SDS011;6953;48.810;9.204;2024-02-15T11:20:08;0.00;;;0.00;;
13764;SDS011;6953;48.810;9.204;2024-02-15T11:22:36;0.00;;;0.00;;
13764;SDS011;6953;48.810;9.204;2024-02-15T11:25:02;0.00;;;0.00;;
13764;SDS011;6953;48.810;9.204;2024-02-15T11:27:34;0.00;;;0.00;;
13764;SDS011;6953;48.810;9.204;2024-02-15T11:30:02;0.00;;;0.00;;
13764;SDS011;6953;48.810;9.204;2024-02-15T11:32:37;0.00;;;0.00;;
13764;SDS011;6953;48.810;9.204;2024-02-15T11:35:08;0.00;;;0.00;;
13764;SDS011;6953;48.810;9.204;2024-02-15T11:40:13;0.00;;;0.00;;
13764;SDS011;6953;48.810;9.204;2024-02-15T11:42:43;0.00;;;0.00;;
13764;SDS011;6953;48.810;9.204;2024-02-15T11:45:09;0.00;;;0.00;;
13764;SDS011;6953;48.810;9.204;2024-02-15T11:47:38;0.00;;;0.00;;
13764;SDS011;6953;48.810;9.204;2024-02-15T11:50:08;0.00;;;0.00;;
13764;SDS011;6953;48.810;9.204;2024-02-15T11:52:40;0.00;;;0.00;;
13764;SDS011;6953;48.810;9.204;2024-02-15T11:55:07;0.00;;;0.00;;
13764;SDS011;6953;48.810;9.204;2024-02-15T11:57:36;0.00;;;0.00;;
13764;SDS011;6953;48.810;9.204;2024-02-15T12:00:18;0.00;;;0.00;;
13764;SDS011;6953;48.810;9.204;2024-02-15T12:03:05;0.00;;;0.00;;
13764;SDS011;6953;48.810;9.204;2024-02-15T12:05:50;0.00;;;0.00;;
13764;SDS011;6953;48.810;9.204;2024-02-15T12:08:34;0.00;;;0.00;;
13764;SDS011;6953;48.810;9.204;2024-02-15T12:11:18;0.00;;;0.00;;
13764;SDS011;6953;48.810;9.204;2024-02-15T12:14:02;0.10;;;0.10;;
13764;SDS011;6953;48.810;9.204;2024-02-15T12:16:46;0.00;;;0.00;;
13764;SDS011;6953;48.810;9.204;2024-02-15T12:19:30;0.00;;;0.00;;
13764;SDS011;6953;48.810;9.204;2024-02-15T12:21:55;0.00;;;0.00;;
13764;SDS011;6953;48.810;9.204;2024-02-15T12:24:22;0.00;;;0.00;;
13764;SDS011;6953;48.810;9.204;2024-02-15T12:26:52;0.00;;;0.00;;
13764;SDS011;6953;48.810;9.204;2024-02-15T12:29:25;0.00;;;0.00;;
13764;SDS011;6953;48.810;9.204;2024-02-15T12:31:50;0.00;;;0.00;;
13764;SDS011;6953;48.810;9.204;2024-02-15T12:34:16;0.00;;;0.00;;
13764;SDS011;6953;48.810;9.204;2024-02-15T12:36:45;0.00;;;0.00;;
13764;SDS011;6953;48.810;9.204;2024-02-15T12:39:10;0.00;;;0.00;;
13764;SDS011;6953;48.810;9.204;2024-02-15T12:41:49;0.00;;;0.00;;
13764;SDS011;6953;48.810;9.204;2024-02-15T12:44:16;0.00;;;0.00;;
13764;SDS011;6953;48.810;9.204;2024-02-15T12:46:42;0.10;;;0.10;;
13764;SDS011;6953;48.810;9.204;2024-02-15T12:49:12;0.10;;;0.10;;
13764;SDS011;6953;48.810;9.204;2024-02-15T12:51:53;0.10;;;0.10;;
13764;SDS011;6953;48.810;9.204;2024-02-15T12:54:20;0.10;;;0.10;;
13764;SDS011;6953;48.810;9.204;2024-02-15T12:56:46;0.00;;;0.00;;
13764;SDS011;6953;48.810;9.204;2024-02-15T12:59:13;0.10;;;0.10;;
13764;SDS011;6953;48.810;9.204;2024-02-15T13:01:39;0.10;;;0.10;;
13764;SDS011;6953;48.810;9.204;2024-02-15T13:04:04;0.08;;;0.08;;
13764;SDS011;6953;48.810;9.204;2024-02-15T13:06:31;0.10;;;0.10;;
13764;SDS011;6953;48.810;9.204;2024-02-15T13:08:59;0.10;;;0.10;;
13764;SDS011;6953;48.810;9.204;2024-02-15T13:11:25;0.10;;;0.10;;
13764;SDS011;6953;48.810;9.204;2024-02-15T13:13:51;0.10;;;0.10;;
13764;SDS011;6953;48.810;9.204;2024-02-15T13:16:16;0.10;;;0.10;;
13764;SDS011;6953;48.810;9.204;2024-02-15T13:18:43;0.10;;;0.10;;
13764;SDS011;6953;48.810;9.204;2024-02-15T13:21:12;0.10;;;0.10;;
13764;SDS011;6953;48.810;9.204;2024-02-15T13:23:37;0.17;;;0.17;;
13764;SDS011;6953;48.810;9.204;2024-02-15T13:26:02;0.20;;;0.20;;
13764;SDS011;6953;48.810;9.204;2024-02-15T13:28:29;0.20;;;0.20;;
13764;SDS011;6953;48.810;9.204;2024-02-15T13:30:55;0.10;;;0.10;;
13764;SDS011;6953;48.810;9.204;2024-02-15T13:33:21;0.13;;;0.13;;
13764;SDS011;6953;48.810;9.204;2024-02-15T13:35:46;0.10;;;0.10;;
13764;SDS011;6953;48.810;9.204;2024-02-15T13:38:14;0.10;;;0.10;;
13764;SDS011;6953;48.810;9.204;2024-02-15T13:40:47;0.20;;;0.20;;
13764;SDS011;6953;48.810;9.204;2024-02-15T13:43:14;0.10;;;0.10;;
13764;SDS011;6953;48.810;9.204;2024-02-15T13:45:42;0.20;;;0.20;;
13764;SDS011;6953;48.810;9.204;2024-02-15T13:48:09;0.10;;;0.10;;
13764;SDS011;6953;48.810;9.204;2024-02-15T13:50:37;0.10;;;0.10;;
13764;SDS011;6953;48.810;9.204;2024-02-15T13:53:03;0.10;;;0.10;;
13764;SDS011;6953;48.810;9.204;2024-02-15T13:55:29;0.20;;;0.20;;
13764;SDS011;6953;48.810;9.204;2024-02-15T13:57:56;0.10;;;0.10;;
13764;SDS011;6953;48.810;9.204;2024-02-15T14:00:21;0.13;;;0.13;;
13764;SDS011;6953;48.810;9.204;2024-02-15T14:05:13;0.10;;;0.10;;
13764;SDS011;6953;48.810;9.204;2024-02-15T14:07:38;0.10;;;0.10;;
13764;SDS011;6953;48.810;9.204;2024-02-15T14:10:04;0.10;;;0.10;;
13764;SDS011;6953;48.810;9.204;2024-02-15T14:12:31;0.10;;;0.10;;
13764;SDS011;6953;48.810;9.204;2024-02-15T14:14:56;0.10;;;0.10;;
13764;SDS011;6953;48.810;9.204;2024-02-15T14:17:22;0.13;;;0.13;;
13764;SDS011;6953;48.810;9.204;2024-02-15T14:19:47;0.10;;;0.10;;
13764;SDS011;6953;48.810;9.204;2024-02-15T14:22:13;0.10;;;0.10;;
13764;SDS011;6953;48.810;9.204;2024-02-15T14:24:41;0.10;;;0.10;;
13764;SDS011;6953;48.810;9.204;2024-02-15T14:27:08;0.20;;;0.20;;
13764;SDS011;6953;48.810;9.204;2024-02-15T14:29:34;0.20;;;0.20;;
13764;SDS011;6953;48.810;9.204;2024-02-15T14:32:02;0.10;;;0.10;;
13764;SDS011;6953;48.810;9.204;2024-02-15T14:34:47;0.20;;;0.20;;
13764;SDS011;6953;48.810;9.204;2024-02-15T14:37:13;0.20;;;0.20;;
13764;SDS011;6953;48.810;9.204;2024-02-15T14:39:39;0.10;;;0.10;;
13764;SDS011;6953;48.810;9.204;2024-02-15T14:42:04;0.10;;;0.10;;
13764;SDS011;6953;48.810;9.204;2024-02-15T14:44:31;0.20;;;0.20;;
13764;SDS011;6953;48.810;9.204;2024-02-15T14:46:56;0.10;;;0.10;;
13764;SDS011;6953;48.810;9.204;2024-02-15T14:49:22;0.20;;;0.20;;
13764;SDS011;6953;48.810;9.204;2024-02-15T14:51:47;0.10;;;0.10;;
13764;SDS011;6953;48.810;9.204;2024-02-15T14:54:14;0.20;;;0.20;;
13764;SDS011;6953;48.810;9.204;2024-02-15T14:56:39;0.20;;;0.20;;
13764;SDS011;6953;48.810;9.204;2024-02-15T14:59:05;0.20;;;0.20;;
13764;SDS011;6953;48.810;9.204;2024-02-15T15:01:30;0.20;;;0.20;;
13764;SDS011;6953;48.810;9.204;2024-02-15T15:03:56;0.20;;;0.20;;
13764;SDS011;6953;48.810;9.204;2024-02-15T15:06:23;0.20;;;0.20;;
13764;SDS011;6953;48.810;9.204;2024-02-15T15:09:07;0.20;;;0.20;;
13764;SDS011;6953;48.810;9.204;2024-02-15T15:11:51;0.20;;;0.20;;